Time;durP1;ratioP1;P1;durP2;ratioP2;P2;SDS_P1;SDS_P2;PMS_P1;PMS_P2;Temp;Humidity;BMP_temperature;BMP_pressure;BME280_temperature;BME280_humidity;BME280_pressure;Samples;Min_cycle;Max_cycle;Signal;HPM_P1;HPM_P2
2023/05/19 00:02:46;;;;;;;;;;;15.40;36.70;;;14.23;37.59;102340.38;12257564;19;19991;-87
2023/05/19 00:06:50;;;;;;;;;;;15.30;36.70;;;14.06;37.65;102317.44;12252058;19;19922;-87
2023/05/19 00:10:52;;;;;;;;;;;15.30;36.70;;;14.17;37.72;102349.34;12256748;19;19921;-87
2023/05/19 00:14:54;;;;;;;;;;;15.20;36.70;;;14.09;37.77;102343.56;12251526;19;19934;-87
2023/05/19 00:18:59;;;;;;;;;;;15.10;36.70;;;14.15;37.82;102366.13;12258068;19;19907;-87
2023/05/19 00:23:01;;;;;;;;;;;15.10;36.70;;;14.06;37.79;102359.47;12256979;19;19958;-87
2023/05/19 00:27:03;;;;;;;;;;;15.10;36.70;;;14.05;37.80;102362.19;12252034;19;19978;-87
2023/05/19 00:31:05;;;;;;;;;;;15.00;36.70;;;13.99;37.75;102358.06;12254036;19;20629;-87
2023/05/19 00:35:07;;;;;;;;;;;15.00;36.80;;;13.64;37.78;102307.91;12247866;19;19982;-87
2023/05/19 00:39:09;;;;;;;;;;;14.90;36.70;;;13.84;37.95;102345.56;12253045;19;19947;-87
2023/05/19 00:43:11;;;;;;;;;;;14.80;36.70;;;13.57;37.94;102314.31;12256566;19;19919;-87
2023/05/19 00:47:13;;;;;;;;;;;14.80;36.80;;;13.64;37.96;102334.16;12253571;19;19919;-87
2023/05/19 00:51:15;;;;;;;;;;;14.80;36.80;;;13.64;38.14;102347.28;12253704;19;19925;-87
2023/05/19 00:55:18;;;;;;;;;;;14.70;36.80;;;13.59;38.05;102344.00;12249175;19;19931;-87
2023/05/19 00:59:20;;;;;;;;;;;14.70;36.80;;;13.62;37.93;102354.34;12252662;19;19923;-87
2023/05/19 01:03:21;;;;;;;;;;;14.60;36.80;;;13.45;38.03;102336.69;12253118;19;19919;-87
2023/05/19 01:07:24;;;;;;;;;;;14.60;36.90;;;13.43;38.07;102342.91;12252995;19;19926;-87
2023/05/19 01:11:26;;;;;;;;;;;14.50;36.90;;;13.21;37.95;102311.44;12251074;19;20357;-87
2023/05/19 01:15:27;;;;;;;;;;;14.50;36.90;;;13.42;38.10;102363.06;12249941;19;19915;-87
2023/05/19 01:19:47;;;;;;;;;;;14.40;36.90;;;13.38;38.08;102350.13;12251605;19;19936;-87
2023/05/19 01:24:29;;;;;;;;;;;14.40;36.90;;;13.32;38.28;102347.75;12249368;19;19919;-87
2023/05/19 01:28:57;;;;;;;;;;;14.30;36.90;;;13.23;38.23;102347.19;12249540;19;19915;-87
2023/05/19 01:33:01;;;;;;;;;;;14.30;37.00;;;13.16;38.14;102345.72;12241775;19;20268;-87
2023/05/19 01:37:03;;;;;;;;;;;14.20;37.00;;;13.08;38.20;102345.16;12246226;19;19918;-87
2023/05/19 01:41:07;;;;;;;;;;;14.10;37.40;;;12.90;38.26;102328.38;12248993;19;19919;-87
2023/05/19 01:45:10;;;;;;;;;;;14.10;37.00;;;12.98;38.26;102356.94;12243844;19;19919;-87
2023/05/19 01:49:17;;;;;;;;;;;14.00;37.00;;;12.97;38.35;102355.22;12246164;19;19922;-87
2023/05/19 01:53:19;;;;;;;;;;;14.00;37.00;;;12.57;38.28;102299.09;12245209;19;20273;-87
2023/05/19 01:57:39;;;;;;;;;;;13.90;37.00;;;12.78;38.35;102345.44;12249772;19;19923;-87
2023/05/19 02:01:56;;;;;;;;;;;13.90;37.10;;;12.80;38.26;102345.41;12248667;19;19914;-87
2023/05/19 02:06:02;;;;;;;;;;;13.90;37.10;;;12.77;38.37;102356.84;12244865;19;19935;-87
2023/05/19 02:10:05;;;;;;;;;;;13.80;37.10;;;12.67;38.38;102346.78;12247291;19;19923;-87
2023/05/19 02:14:16;;;;;;;;;;;13.70;37.10;;;12.58;38.42;102342.72;12245080;19;19914;-87
2023/05/19 02:18:19;;;;;;;;;;;13.70;37.10;;;12.56;38.41;102348.03;12247969;19;20337;-87
2023/05/19 02:22:25;;;;;;;;;;;13.60;37.10;;;12.43;38.46;102332.81;12248528;19;19929;-87
2023/05/19 02:26:26;;;;;;;;;;;13.60;37.10;;;12.38;38.48;102336.47;12245233;19;19915;-87
2023/05/19 02:30:30;;;;;;;;;;;13.50;37.20;;;12.44;38.55;102347.63;12248331;19;19982;-87
2023/05/19 02:34:38;;;;;;;;;;;13.50;37.20;;;12.17;38.60;102301.41;12244501;19;20213;-87
2023/05/19 02:38:40;;;;;;;;;;;13.40;37.20;;;12.28;38.51;102326.38;12243337;19;19929;-87
2023/05/19 02:42:41;;;;;;;;;;;13.40;37.30;;;12.35;38.71;102346.19;12247714;19;19919;-87
2023/05/19 02:46:43;;;;;;;;;;;13.40;37.30;;;12.18;38.63;102318.00;12241345;19;19929;-87
2023/05/19 02:50:45;;;;;;;;;;;13.30;37.30;;;12.24;38.64;102327.41;12244190;19;19931;-87
2023/05/19 02:54:46;;;;;;;;;;;13.30;37.30;;;12.11;38.73;102309.50;12242606;19;19942;-86
2023/05/19 02:58:48;;;;;;;;;;;13.30;37.40;;;12.24;38.73;102333.50;12246281;19;19907;-87
2023/05/19 03:02:51;;;;;;;;;;;13.30;37.40;;;12.12;38.86;102318.22;12244334;19;19914;-87
2023/05/19 03:06:53;;;;;;;;;;;13.30;37.50;;;12.08;38.92;102316.63;12242151;19;19990;-87
2023/05/19 03:10:55;;;;;;;;;;;13.20;37.40;;;12.12;38.86;102324.34;12243900;19;19919;-87
2023/05/19 03:14:56;;;;;;;;;;;13.20;37.50;;;12.00;38.86;102313.44;12242211;19;19918;-86
2023/05/19 03:18:58;;;;;;;;;;;13.20;37.50;;;11.97;38.93;102308.31;12244001;19;19915;-86
2023/05/19 03:23:00;;;;;;;;;;;13.20;37.50;;;12.07;39.06;102331.50;12239165;19;20377;-86
2023/05/19 03:27:04;;;;;;;;;;;13.20;37.60;;;11.76;38.86;102284.56;12239686;19;19923;-87
2023/05/19 03:31:05;;;;;;;;;;;13.10;37.50;;;11.93;39.01;102316.25;12243832;19;19933;-87
2023/05/19 03:35:12;;;;;;;;;;;13.20;37.70;;;11.95;39.12;102330.16;12241115;19;19915;-87
2023/05/19 03:39:14;;;;;;;;;;;13.10;37.60;;;11.95;38.89;102331.91;12243347;19;19923;-87
2023/05/19 03:43:16;;;;;;;;;;;13.10;37.60;;;11.85;38.92;102320.88;12242015;19;19925;-87
2023/05/19 03:47:26;;;;;;;;;;;13.10;37.70;;;11.92;39.12;102330.25;12238732;19;20258;-87
2023/05/19 03:51:46;;;;;;;;;;;13.10;37.70;;;11.92;39.07;102335.50;12243056;19;19930;-87
2023/05/19 03:56:17;;;;;;;;;;;13.10;37.70;;;11.88;39.16;102335.63;12235796;19;20337;-87
2023/05/19 04:00:19;;;;;;;;;;;13.00;37.70;;;11.90;39.09;102345.16;12244019;19;19915;-87
2023/05/19 04:04:20;;;;;;;;;;;13.00;37.80;;;11.66;39.32;102298.84;12252345;19;19919;-87
2023/05/19 04:08:22;;;;;;;;;;;13.00;37.90;;;11.89;39.07;102342.59;12256043;19;19926;-87
2023/05/19 04:12:24;;;;;;;;;;;13.00;37.90;;;11.84;39.20;102337.50;12253424;19;20318;-87
2023/05/19 04:16:27;;;;;;;;;;;13.00;37.90;;;11.84;39.19;102332.25;12250784;19;19938;-87
2023/05/19 04:20:29;;;;;;;;;;;13.00;37.90;;;11.87;39.36;102337.41;12252737;19;19953;-87
2023/05/19 04:24:32;;;;;;;;;;;13.00;37.90;;;11.91;39.34;102351.28;12253302;19;19926;-87
2023/05/19 04:28:37;;;;;;;;;;;13.00;38.00;;;11.81;39.25;102327.13;12253677;19;19923;-87
2023/05/19 04:32:40;;;;;;;;;;;13.00;38.00;;;11.89;39.46;102346.06;12244444;19;19923;-87
2023/05/19 04:36:42;;;;;;;;;;;13.00;37.90;;;11.70;39.46;102324.03;12251611;19;20258;-87
2023/05/19 04:40:44;;;;;;;;;;;13.00;38.50;;;11.85;39.28;102357.50;12255560;19;19986;-87
2023/05/19 04:44:50;;;;;;;;;;;13.00;38.20;;;11.58;39.42;102300.88;12248540;19;19926;-87
2023/05/19 04:48:54;;;;;;;;;;;13.00;38.20;;;11.79;39.48;102333.31;12254587;19;19919;-87
2023/05/19 04:52:57;;;;;;;;;;;13.00;38.30;;;11.83;39.52;102337.56;12253592;19;19918;-87
2023/05/19 04:57:00;;;;;;;;;;;13.10;38.30;;;11.61;39.64;102292.94;12249542;19;20007;-87
2023/05/19 05:01:04;;;;;;;;;;;13.10;38.60;;;12.00;39.62;102345.69;12252892;19;19919;-87
2023/05/19 05:05:07;;;;;;;;;;;13.20;38.70;;;12.12;39.72;102353.13;12251859;19;19928;-87
2023/05/19 05:09:09;;;;;;;;;;;13.30;38.80;;;12.18;39.68;102349.44;12252132;19;19919;-88
2023/05/19 05:13:11;;;;;;;;;;;13.40;39.10;;;12.24;39.91;102341.34;12252706;19;19919;-87
2023/05/19 05:17:14;;;;;;;;;;;13.50;39.30;;;12.33;39.79;102343.63;12252390;19;19919;-87
2023/05/19 05:21:18;;;;;;;;;;;13.60;39.30;;;12.44;39.99;102345.00;12253046;19;19923;-87
2023/05/19 05:25:20;;;;;;;;;;;13.70;38.80;;;12.46;40.09;102327.47;12250318;19;19982;-87
2023/05/19 05:29:22;;;;;;;;;;;13.90;39.00;;;12.59;40.02;102337.44;12252556;19;19927;-87
2023/05/19 05:33:25;;;;;;;;;;;14.00;38.90;;;12.72;39.99;102336.94;12244976;19;20279;-89
2023/05/19 05:37:27;;;;;;;;;;;14.10;39.40;;;12.90;40.28;102351.13;12251260;19;19984;-89
2023/05/19 05:41:33;;;;;;;;;;;14.20;39.50;;;13.01;40.25;102357.66;12248940;19;19986;-89
2023/05/19 05:45:39;;;;;;;;;;;14.30;39.40;;;13.15;40.26;102361.50;12240281;19;19918;-87
2023/05/19 05:49:42;;;;;;;;;;;14.40;39.70;;;13.17;40.27;102334.28;12244279;19;19994;-88
2023/05/19 05:53:52;;;;;;;;;;;14.50;39.50;;;13.41;40.34;102345.59;12247363;19;19919;-88
2023/05/19 05:57:55;;;;;;;;;;;14.70;39.40;;;13.64;40.40;102362.19;12248678;19;19989;-89
2023/05/19 06:01:57;;;;;;;;;;;14.90;39.40;;;13.67;40.45;102322.66;12248187;19;19911;-89
2023/05/19 06:05:59;;;;;;;;;;;15.10;39.50;;;13.97;40.50;102345.91;12245566;19;19943;-87
2023/05/19 06:10:00;;;;;;;;;;;15.30;39.90;;;14.04;40.42;102329.81;12256192;19;20012;-87
2023/05/19 06:14:04;;;;;;;;;;;15.50;39.40;;;14.20;40.36;102329.97;12256028;19;19929;-86
2023/05/19 06:18:32;;;;;;;;;;;15.60;39.50;;;14.42;40.34;102334.25;12255631;19;20278;-86
2023/05/19 06:22:35;;;;;;;;;;;15.80;39.60;;;14.52;40.36;102330.28;12254082;19;20412;-87
2023/05/19 06:26:39;;;;;;;;;;;16.00;39.30;;;14.64;40.37;102328.91;12245108;19;19918;-87
2023/05/19 06:30:40;;;;;;;;;;;16.10;39.20;;;14.86;40.32;102348.03;12257764;19;20278;-87
2023/05/19 06:34:57;;;;;;;;;;;16.20;39.30;;;14.98;40.53;102357.09;12255755;19;19927;-87
2023/05/19 06:39:00;;;;;;;;;;;16.40;39.90;;;15.02;40.34;102341.09;12252897;19;19918;-89
2023/05/19 06:43:03;;;;;;;;;;;16.50;39.40;;;14.96;40.46;102314.22;12255795;19;19923;-87
2023/05/19 06:47:26;;;;;;;;;;;16.60;39.10;;;15.08;40.44;102324.16;12256555;19;19917;-87
2023/05/19 06:51:28;;;;;;;;;;;16.60;39.20;;;15.33;40.45;102355.38;12254813;19;19918;-87
2023/05/19 06:55:31;;;;;;;;;;;16.70;39.60;;;15.37;40.30;102346.44;12254203;19;19906;-87
2023/05/19 06:59:33;;;;;;;;;;;16.80;40.50;;;15.30;40.51;102323.97;12255280;19;20321;-88
2023/05/19 07:03:35;;;;;;;;;;;16.90;40.20;;;15.51;40.58;102348.38;12244881;19;19923;-86
2023/05/19 07:07:37;;;;;;;;;;;16.90;39.60;;;15.68;40.42;102358.94;12247306;19;20322;-86
2023/05/19 07:11:41;;;;;;;;;;;17.10;39.50;;;15.86;40.70;102359.78;12249603;19;20264;-86
2023/05/19 07:15:44;;;;;;;;;;;17.20;39.30;;;15.90;40.57;102339.41;12246127;19;19947;-85
2023/05/19 07:19:46;;;;;;;;;;;17.30;39.70;;;15.92;40.49;102327.00;12249424;19;20275;-85
2023/05/19 07:23:49;;;;;;;;;;;17.40;40.00;;;16.29;40.48;102356.69;12249937;19;19919;-85
2023/05/19 07:27:51;;;;;;;;;;;17.60;40.10;;;16.48;40.61;102359.22;12249398;19;19927;-85
2023/05/19 07:31:56;;;;;;;;;;;17.70;40.00;;;16.65;40.42;102367.03;12250595;19;19923;-87
2023/05/19 07:35:57;;;;;;;;;;;17.90;39.30;;;16.53;40.56;102314.97;12251778;19;19915;-88
2023/05/19 07:39:59;;;;;;;;;;;18.00;39.80;;;16.76;40.46;102322.44;12257311;19;19919;-88
2023/05/19 07:44:06;;;;;;;;;;;18.20;39.90;;;17.04;40.53;102334.16;12259867;19;19979;-87
2023/05/19 07:48:07;;;;;;;;;;;18.40;39.50;;;17.32;40.60;102348.41;12259755;19;19914;-88
2023/05/19 07:52:09;;;;;;;;;;;18.60;39.10;;;17.43;40.62;102336.25;12259784;19;20253;-87
2023/05/19 07:56:11;;;;;;;;;;;18.80;39.30;;;17.60;40.45;102342.34;12254073;19;19918;-88
2023/05/19 08:00:13;;;;;;;;;;;19.00;39.50;;;17.64;40.35;102312.19;12254416;19;19990;-87
2023/05/19 08:04:15;;;;;;;;;;;19.10;39.00;;;17.95;40.40;102353.50;12254406;19;19936;-87
2023/05/19 08:08:18;;;;;;;;;;;19.20;38.80;;;18.11;40.59;102343.69;12253285;19;20019;-86
2023/05/19 08:12:20;;;;;;;;;;;19.40;39.00;;;18.34;40.38;102355.50;12256019;19;20272;-88
2023/05/19 08:16:21;;;;;;;;;;;19.60;39.00;;;18.47;40.37;102326.50;12253450;19;20428;-87
2023/05/19 08:20:23;;;;;;;;;;;19.80;38.80;;;18.60;40.20;102323.91;12254097;19;20555;-88
2023/05/19 08:24:25;;;;;;;;;;;19.90;38.70;;;18.82;40.26;102334.00;12254812;19;19915;-87
2023/05/19 08:28:26;;;;;;;;;;;20.10;38.60;;;19.01;40.54;102338.97;12256563;19;20313;-88
2023/05/19 08:32:27;;;;;;;;;;;20.30;38.50;;;19.18;40.10;102340.50;12256778;19;19925;-89
2023/05/19 08:36:29;;;;;;;;;;;20.50;38.40;;;19.34;40.18;102335.91;12253994;19;19919;-88
2023/05/19 08:40:32;;;;;;;;;;;20.60;38.00;;;19.34;40.29;102319.16;12254239;19;19918;-88
2023/05/19 08:44:33;;;;;;;;;;;20.80;37.90;;;19.36;40.30;102302.22;12252660;19;19935;-87
2023/05/19 08:48:37;;;;;;;;;;;20.90;38.00;;;19.63;39.89;102333.06;12252604;19;19935;-88
2023/05/19 08:52:50;;;;;;;;;;;21.00;37.80;;;19.63;39.97;102319.81;12254212;19;19924;-88
2023/05/19 08:56:52;;;;;;;;;;;21.00;37.60;;;19.59;40.22;102302.44;12248559;19;19911;-88
2023/05/19 09:00:55;;;;;;;;;;;21.10;37.10;;;19.64;39.86;102310.94;12255270;19;19943;-88
2023/05/19 09:04:57;;;;;;;;;;;21.10;37.40;;;19.60;39.92;102312.91;12253588;19;19980;-88
2023/05/19 09:08:58;;;;;;;;;;;21.10;37.20;;;19.70;39.63;102318.50;12253094;19;19919;-88
2023/05/19 09:13:00;;;;;;;;;;;21.00;36.50;;;19.60;39.89;102298.81;12256844;19;19910;-88
2023/05/19 09:17:02;;;;;;;;;;;21.00;36.90;;;19.34;39.99;102244.97;12251085;19;19935;-87
2023/05/19 09:21:04;;;;;;;;;;;21.00;36.60;;;19.81;39.60;102296.53;12256914;19;19910;-88
2023/05/19 09:25:17;;;;;;;;;;;21.00;37.00;;;19.93;39.99;102289.53;12254548;19;19982;-87
2023/05/19 09:29:19;;;;;;;;;;;21.10;36.50;;;19.90;39.89;102264.06;12255654;19;19935;-88
2023/05/19 09:33:20;;;;;;;;;;;21.30;36.80;;;20.20;39.50;102282.31;12254381;19;19927;-86
2023/05/19 09:37:23;;;;;;;;;;;21.40;35.70;;;20.24;39.40;102275.81;12253559;19;19915;-87
2023/05/19 09:41:25;;;;;;;;;;;21.50;36.90;;;20.34;39.50;102287.47;12253183;19;19915;-86
2023/05/19 09:45:27;;;;;;;;;;;21.50;36.90;;;20.41;39.49;102287.00;12251508;19;19978;-86
2023/05/19 09:49:29;;;;;;;;;;;21.60;36.60;;;20.41;39.01;102277.25;12252628;19;19915;-85
2023/05/19 09:53:32;;;;;;;;;;;21.70;34.90;;;20.49;39.07;102282.00;12253496;19;19923;-86
2023/05/19 09:57:38;;;;;;;;;;;21.70;35.60;;;20.49;38.88;102264.25;12251742;19;19919;-87
2023/05/19 10:01:45;;;;;;;;;;;21.80;34.20;;;20.54;38.98;102266.63;12255868;19;19919;-85
2023/05/19 10:05:46;;;;;;;;;;;21.80;34.00;;;20.68;38.72;102271.75;12258539;19;20325;-84
2023/05/19 10:09:49;;;;;;;;;;;21.80;35.10;;;20.55;38.81;102229.38;12257040;19;19915;-85
2023/05/19 10:13:51;;;;;;;;;;;21.90;35.60;;;20.74;39.03;102258.06;12255312;19;19914;-85
2023/05/19 10:17:52;;;;;;;;;;;21.90;35.60;;;20.76;39.03;102244.66;12258409;19;19918;-85
2023/05/19 10:21:55;;;;;;;;;;;22.00;35.40;;;20.86;38.89;102253.63;12258169;19;19927;-85
2023/05/19 10:25:58;;;;;;;;;;;22.00;35.60;;;20.86;38.56;102243.00;12252641;19;19964;-86
2023/05/19 10:30:21;;;;;;;;;;;22.00;34.00;;;20.90;38.42;102243.63;12252889;19;19907;-85
2023/05/19 10:34:49;;;;;;;;;;;22.10;34.50;;;20.97;38.16;102258.97;12248546;19;19915;-85
2023/05/19 10:39:05;;;;;;;;;;;22.10;34.80;;;20.99;38.57;102254.41;12252092;19;19923;-85
2023/05/19 10:43:47;;;;;;;;;;;22.10;34.90;;;20.97;37.88;102255.47;12253909;19;19927;-85
2023/05/19 10:47:50;;;;;;;;;;;22.10;34.40;;;20.93;37.99;102252.22;12250701;19;19922;-85
2023/05/19 10:51:54;;;;;;;;;;;22.10;34.00;;;20.93;37.89;102246.91;12250994;19;19990;-85
2023/05/19 10:55:57;;;;;;;;;;;22.10;34.80;;;21.10;37.96;102234.16;12249413;19;19922;-86
2023/05/19 11:00:25;;;;;;;;;;;22.10;35.30;;;21.11;38.06;102226.06;12251544;19;19990;-86
2023/05/19 11:04:45;;;;;;;;;;;22.30;34.80;;;21.24;38.00;102231.28;12249586;19;20330;-84
2023/05/19 11:08:52;;;;;;;;;;;22.30;34.20;;;21.28;38.08;102226.59;12251559;19;19999;-86
2023/05/19 11:12:55;;;;;;;;;;;22.40;35.30;;;21.25;38.06;102227.66;12261055;19;20644;-86
2023/05/19 11:16:57;;;;;;;;;;;22.40;34.50;;;21.25;37.89;102230.31;12258673;19;20299;-86
2023/05/19 11:21:01;;;;;;;;;;;22.40;33.00;;;21.09;37.77;102216.50;12262499;19;19972;-86
2023/05/19 11:25:02;;;;;;;;;;;22.30;35.00;;;21.16;37.98;102229.22;12258798;19;19910;-86
2023/05/19 11:29:05;;;;;;;;;;;22.30;35.10;;;21.15;37.51;102211.59;12262634;19;19986;-85
2023/05/19 11:33:07;;;;;;;;;;;22.40;35.20;;;21.27;37.73;102216.94;12262479;19;19919;-86
2023/05/19 11:37:10;;;;;;;;;;;22.30;33.30;;;21.23;37.48;102212.84;12256694;19;19934;-85
2023/05/19 11:41:14;;;;;;;;;;;22.40;33.70;;;21.24;37.47;102217.16;12262559;19;19936;-86
2023/05/19 11:45:16;;;;;;;;;;;22.30;34.20;;;21.20;37.69;102217.41;12256945;19;19943;-88
2023/05/19 11:49:17;;;;;;;;;;;22.30;33.90;;;21.11;37.40;102199.50;12252946;19;19923;-87
2023/05/19 11:53:19;;;;;;;;;;;22.30;33.50;;;21.13;37.40;102208.19;12260018;19;19920;-89
2023/05/19 11:57:21;;;;;;;;;;;22.30;34.90;;;21.13;37.41;102202.88;12255634;19;19918;-87
2023/05/19 12:01:25;;;;;;;;;;;22.30;35.30;;;21.20;37.83;102197.97;12261074;19;19936;-88
2023/05/19 12:05:28;;;;;;;;;;;22.30;35.30;;;21.34;37.59;102207.53;12251271;19;20305;-88
2023/05/19 12:09:29;;;;;;;;;;;22.30;35.60;;;21.33;37.67;102181.91;12258804;19;19943;-89
2023/05/19 12:13:32;;;;;;;;;;;22.50;35.30;;;21.59;37.30;102214.47;12249811;19;20436;-86
2023/05/19 12:17:33;;;;;;;;;;;22.60;33.70;;;21.58;37.21;102215.44;12256867;19;20401;-86
2023/05/19 12:21:35;;;;;;;;;;;22.70;35.10;;;21.58;37.21;102215.44;12255232;19;19919;-87
2023/05/19 12:25:37;;;;;;;;;;;22.70;34.60;;;21.39;37.06;102178.81;12253564;19;19915;-86
2023/05/19 12:29:39;;;;;;;;;;;22.70;35.30;;;21.48;37.11;102193.19;12260150;19;19915;-89
2023/05/19 12:33:40;;;;;;;;;;;22.70;34.90;;;21.50;37.19;102194.78;12256459;19;20286;-87
2023/05/19 12:37:42;;;;;;;;;;;22.70;34.10;;;21.49;37.09;102194.88;12242644;19;19918;-87
2023/05/19 12:41:44;;;;;;;;;;;22.60;34.60;;;21.59;37.12;102210.00;12213155;19;19919;-86
2023/05/19 12:45:46;;;;;;;;;;;22.60;35.10;;;21.63;36.76;102200.81;12250805;19;19939;-86
2023/05/19 12:50:04;;;;;;;;;;;22.70;35.10;;;21.57;37.00;102190.66;12258486;19;19914;-86
2023/05/19 12:54:05;;;;;;;;;;;22.70;34.70;;;21.55;37.30;102189.94;12255528;19;19923;-86
2023/05/19 12:58:07;;;;;;;;;;;22.70;34.20;;;21.59;37.08;102185.22;12256401;19;19986;-86
2023/05/19 13:02:09;;;;;;;;;;;22.70;34.70;;;21.47;36.63;102163.13;12255380;19;19927;-86
2023/05/19 13:06:10;;;;;;;;;;;22.70;34.50;;;21.64;36.65;102185.72;12254744;19;19930;-86
2023/05/19 13:10:12;;;;;;;;;;;22.70;33.50;;;21.68;37.01;102196.94;12256773;19;19917;-87
2023/05/19 13:14:14;;;;;;;;;;;22.70;34.60;;;21.72;36.71;102182.44;12254792;19;19926;-86
2023/05/19 13:18:16;;;;;;;;;;;22.70;34.20;;;21.70;36.84;102198.50;12259229;19;19923;-87
2023/05/19 13:22:17;;;;;;;;;;;22.80;34.20;;;21.65;36.43;102185.56;12257573;19;19950;-88
2023/05/19 13:26:20;;;;;;;;;;;22.80;34.10;;;21.53;36.95;102167.94;12255728;19;19927;-85
2023/05/19 13:30:22;;;;;;;;;;;22.70;34.40;;;21.68;36.54;102189.81;12254718;19;19970;-87
2023/05/19 13:34:24;;;;;;;;;;;22.70;34.00;;;21.71;36.99;102186.94;12254141;19;19918;-86
2023/05/19 13:38:26;;;;;;;;;;;22.70;34.30;;;21.72;37.00;102183.28;12257463;19;19919;-86
2023/05/19 13:42:28;;;;;;;;;;;22.80;34.90;;;21.67;36.71;102169.50;12256178;19;19918;-87
2023/05/19 13:46:29;;;;;;;;;;;22.80;34.40;;;21.76;36.94;102176.75;12253217;19;19919;-86
2023/05/19 13:50:33;;;;;;;;;;;22.80;34.90;;;21.75;36.82;102163.59;12258193;19;19986;-86
2023/05/19 13:54:34;;;;;;;;;;;22.90;34.90;;;21.77;36.51;102161.66;12255011;19;19927;-86
2023/05/19 13:58:36;;;;;;;;;;;22.90;33.20;;;21.80;36.65;102180.88;12257009;19;20321;-86
2023/05/19 14:02:38;;;;;;;;;;;22.90;33.90;;;21.73;36.18;102173.50;12251554;19;19927;-86
2023/05/19 14:06:39;;;;;;;;;;;22.90;33.90;;;21.70;36.55;102177.25;12241938;19;19919;-85
2023/05/19 14:10:41;;;;;;;;;;;22.90;34.40;;;21.79;36.84;102188.94;12241385;19;20349;-86
2023/05/19 14:14:43;;;;;;;;;;;22.90;34.60;;;21.78;36.69;102180.13;12244721;19;19926;-86
2023/05/19 14:18:45;;;;;;;;;;;22.80;34.10;;;21.85;36.46;102189.31;12247472;19;19918;-85
2023/05/19 14:22:46;;;;;;;;;;;22.90;34.40;;;21.78;36.53;102185.44;12247561;19;20000;-84
2023/05/19 14:26:48;;;;;;;;;;;22.80;34.00;;;21.79;36.42;102191.59;12245678;19;19911;-86
2023/05/19 14:30:49;;;;;;;;;;;22.80;34.30;;;21.79;36.74;102179.19;12246044;19;19922;-86
2023/05/19 14:34:51;;;;;;;;;;;22.80;33.60;;;21.78;36.30;102179.28;12247719;19;19931;-86
2023/05/19 14:38:53;;;;;;;;;;;22.80;34.80;;;21.62;36.62;102145.09;12248402;19;20375;-85
2023/05/19 14:42:55;;;;;;;;;;;22.90;33.80;;;21.87;36.42;102186.53;12250793;19;19946;-86
2023/05/19 14:46:57;;;;;;;;;;;22.90;33.80;;;21.71;36.66;102157.69;12242609;19;19923;-86
2023/05/19 14:50:59;;;;;;;;;;;22.90;33.70;;;21.76;36.47;102176.75;12249565;19;19915;-86
2023/05/19 14:55:01;;;;;;;;;;;22.90;33.90;;;21.85;36.39;102178.69;12244889;19;19910;-86
2023/05/19 14:59:03;;;;;;;;;;;22.90;33.90;;;21.93;36.44;102188.72;12246214;19;19923;-86
2023/05/19 15:03:04;;;;;;;;;;;22.90;35.00;;;21.83;36.43;102177.13;12248274;19;19940;-86
2023/05/19 15:07:06;;;;;;;;;;;22.90;33.50;;;21.85;36.44;102180.50;12244351;19;19906;-86
2023/05/19 15:11:08;;;;;;;;;;;22.90;34.80;;;21.95;36.33;102188.56;12247528;19;19922;-85
2023/05/19 15:15:10;;;;;;;;;;;22.90;34.40;;;21.96;36.32;102184.97;12246176;19;20341;-86
2023/05/19 15:19:11;;;;;;;;;;;22.90;33.80;;;21.86;36.31;102174.22;12245991;19;20341;-85
2023/05/19 15:23:12;;;;;;;;;;;22.90;34.00;;;21.73;36.32;102152.22;12248446;19;19915;-86
2023/05/19 15:27:14;;;;;;;;;;;22.90;33.80;;;21.73;35.80;102155.72;12245507;19;19918;-85
2023/05/19 15:31:16;;;;;;;;;;;22.90;34.40;;;21.81;36.17;102179.88;12243902;19;19952;-86
2023/05/19 15:35:18;;;;;;;;;;;22.90;34.40;;;21.78;35.83;102171.31;12243516;19;20362;-87
2023/05/19 15:39:19;;;;;;;;;;;22.80;33.40;;;21.73;36.00;102165.50;12244930;19;19926;-86
2023/05/19 15:43:21;;;;;;;;;;;22.80;34.30;;;21.74;35.91;102167.19;12243947;19;19922;-86
2023/05/19 15:47:23;;;;;;;;;;;22.70;33.80;;;21.64;35.98;102172.41;12245135;19;19914;-87
2023/05/19 15:51:24;;;;;;;;;;;22.70;33.60;;;21.53;36.26;102164.44;12246263;19;19974;-86
2023/05/19 15:55:26;;;;;;;;;;;22.60;34.10;;;21.27;35.74;102153.16;12239220;19;19911;-85
2023/05/19 15:59:28;;;;;;;;;;;22.50;33.50;;;21.32;36.08;102178.41;12256293;19;20245;-85
2023/05/19 16:03:29;;;;;;;;;;;22.40;33.80;;;21.25;35.77;102177.19;12254082;19;19930;-86
2023/05/19 16:07:31;;;;;;;;;;;22.30;33.60;;;21.24;35.69;102172.84;12254601;19;19911;-85
2023/05/19 16:11:32;;;;;;;;;;;22.20;34.10;;;21.25;35.88;102173.69;12254123;19;20349;-87
2023/05/19 16:15:33;;;;;;;;;;;22.20;34.10;;;21.16;36.15;102154.00;12253073;19;19919;-86
2023/05/19 16:19:35;;;;;;;;;;;22.20;34.00;;;21.02;35.76;102125.00;12254441;19;19914;-86
2023/05/19 16:23:37;;;;;;;;;;;22.20;33.60;;;21.26;35.88;102157.63;12041476;19;4173414;-86
2023/05/19 16:27:38;;;;;;;;;;;22.20;34.30;;;21.08;35.72;102128.00;12259265;19;20269;-86
2023/05/19 16:31:39;;;;;;;;;;;22.20;34.10;;;21.20;35.71;102144.81;12253309;19;19929;-86
2023/05/19 16:35:41;;;;;;;;;;;22.20;33.70;;;21.11;35.86;102150.84;12253730;19;19947;-85
2023/05/19 16:39:42;;;;;;;;;;;22.10;34.00;;;21.06;35.73;102148.53;12241730;19;20326;-87
2023/05/19 16:43:44;;;;;;;;;;;22.10;33.90;;;20.98;35.69;102157.09;12253955;19;19923;-86
2023/05/19 16:47:45;;;;;;;;;;;22.00;33.80;;;20.80;35.87;102144.38;12251850;19;19907;-86
2023/05/19 16:51:46;;;;;;;;;;;21.90;34.50;;;20.88;35.67;102155.28;12252401;19;19907;-87
2023/05/19 16:55:48;;;;;;;;;;;21.80;34.50;;;20.89;36.01;102156.94;12251249;19;19915;-86
2023/05/19 16:59:49;;;;;;;;;;;21.80;34.60;;;20.89;35.55;102155.13;12255180;19;19925;-88
2023/05/19 17:03:51;;;;;;;;;;;21.80;34.60;;;20.63;35.79;102125.28;12253160;19;19945;-87
2023/05/19 17:07:53;;;;;;;;;;;21.80;34.40;;;20.79;35.91;102143.53;12250001;19;19918;-87
2023/05/19 17:11:54;;;;;;;;;;;21.80;34.70;;;20.86;35.78;102162.50;12252542;19;19923;-86
2023/05/19 17:15:56;;;;;;;;;;;21.70;34.40;;;20.56;35.76;102124.03;12250558;19;21680;-87
2023/05/19 17:19:58;;;;;;;;;;;21.70;34.10;;;20.63;35.79;102159.78;12247130;19;19911;-86
2023/05/19 17:23:59;;;;;;;;;;;21.70;35.10;;;20.61;36.05;102168.81;12250500;19;19911;-86
2023/05/19 17:28:01;;;;;;;;;;;21.60;34.70;;;20.50;35.82;102156.31;12251643;19;19922;-87
2023/05/19 17:32:02;;;;;;;;;;;21.60;34.70;;;20.54;35.80;102165.75;12254427;19;19919;-87
2023/05/19 17:36:04;;;;;;;;;;;21.50;34.70;;;20.43;35.90;102174.50;12248478;19;20663;-87
2023/05/19 17:40:06;;;;;;;;;;;21.40;34.30;;;20.33;36.11;102153.09;12254796;19;19966;-87
2023/05/19 17:44:08;;;;;;;;;;;21.40;34.70;;;20.16;35.82;102142.03;12251884;19;19918;-87
2023/05/19 17:48:10;;;;;;;;;;;21.30;34.80;;;20.25;36.10;102173.19;12253397;19;20333;-87
2023/05/19 17:52:12;;;;;;;;;;;21.30;34.80;;;20.33;35.97;102184.06;12253753;19;19975;-87
2023/05/19 17:56:13;;;;;;;;;;;21.20;34.80;;;20.01;35.86;102133.38;12250003;19;19937;-87
2023/05/19 18:00:16;;;;;;;;;;;21.20;34.60;;;20.21;36.05;102188.47;12250927;19;20002;-87
2023/05/19 18:04:19;;;;;;;;;;;21.20;34.90;;;19.86;35.70;102141.50;12247871;19;19915;-86
2023/05/19 18:08:25;;;;;;;;;;;21.10;35.00;;;19.86;35.67;102141.50;12245337;19;19919;-86
2023/05/19 18:12:27;;;;;;;;;;;21.10;35.50;;;19.80;35.73;102141.94;12241513;19;19937;-87
2023/05/19 18:16:30;;;;;;;;;;;21.00;35.20;;;19.80;35.82;102141.94;12245285;19;19925;-87